createdAt,value
2019-01-04T00:00:42.612Z,957.58
2019-01-04T00:01:50.746Z,957.54
2019-01-04T00:02:58.742Z,957.50
2019-01-04T00:04:06.787Z,957.52
2019-01-04T00:05:14.831Z,957.52
2019-01-04T00:06:22.904Z,957.50
2019-01-04T00:07:31.025Z,957.54
2019-01-04T00:08:39.147Z,957.56
2019-01-04T00:09:47.106Z,957.55
2019-01-04T00:10:55.106Z,957.57
2019-01-04T00:12:03.162Z,957.57
2019-01-04T00:13:11.305Z,957.61
2019-01-04T00:14:19.327Z,957.59
2019-01-04T00:15:27.343Z,957.58
2019-01-04T00:16:35.400Z,957.57
2019-01-04T00:17:43.447Z,957.58
2019-01-04T00:18:51.589Z,957.61
2019-01-04T00:19:59.556Z,957.61
2019-01-04T00:21:07.620Z,957.58
2019-01-04T00:22:15.696Z,957.58
2019-01-04T00:23:23.806Z,957.58
2019-01-04T00:24:31.856Z,957.59
2019-01-04T00:25:39.809Z,957.59
2019-01-04T00:26:47.888Z,957.57
2019-01-04T00:27:55.937Z,957.57
2019-01-04T00:29:04.002Z,957.59
2019-01-04T00:30:12.172Z,957.62
2019-01-04T00:31:20.115Z,957.67
2019-01-04T00:32:28.155Z,957.67
2019-01-04T00:33:36.221Z,957.66
2019-01-04T00:34:44.310Z,957.69
2019-01-04T00:35:52.418Z,957.68
2019-01-04T00:37:00.387Z,957.70
2019-01-04T00:38:08.435Z,957.67
2019-01-04T00:39:16.588Z,957.70
2019-01-04T00:40:24.557Z,957.66
2019-01-04T00:41:32.687Z,957.66
2019-01-04T00:42:40.661Z,957.66
2019-01-04T00:43:48.701Z,957.67
2019-01-04T00:44:56.753Z,957.70
2019-01-04T00:46:04.814Z,957.72
2019-01-04T00:47:12.971Z,957.71
2019-01-04T00:48:20.911Z,957.69
2019-01-04T00:49:28.987Z,957.69
2019-01-04T00:50:37.040Z,957.70
2019-01-04T00:51:45.086Z,957.70
2019-01-04T00:52:53.249Z,957.71
2019-01-04T00:54:01.183Z,957.69
2019-01-04T00:55:09.394Z,957.65
2019-01-04T00:56:17.319Z,957.66
2019-01-04T00:57:25.368Z,957.65
2019-01-04T00:58:33.432Z,957.66
2019-01-04T00:59:41.477Z,957.68
2019-01-04T01:00:49.538Z,957.67
2019-01-04T01:01:57.590Z,957.69
2019-01-04T01:03:05.734Z,957.68
2019-01-04T01:04:13.701Z,957.67
2019-01-04T01:05:21.751Z,957.66
2019-01-04T01:06:29.802Z,957.69
2019-01-04T01:07:37.910Z,957.68
2019-01-04T01:08:45.921Z,957.70
2019-01-04T01:09:53.978Z,957.64
2019-01-04T01:11:02.139Z,957.67
2019-01-04T01:12:10.091Z,957.64
2019-01-04T01:13:18.191Z,957.60
2019-01-04T01:14:26.341Z,957.61
2019-01-04T01:15:34.256Z,957.61
2019-01-04T01:16:42.304Z,957.57
2019-01-04T01:17:50.433Z,957.57
2019-01-04T01:18:58.403Z,957.58
2019-01-04T01:20:06.497Z,957.58
2019-01-04T01:21:14.538Z,957.52
2019-01-04T01:22:22.583Z,957.57
2019-01-04T01:23:30.683Z,957.54
2019-01-04T01:24:38.697Z,957.52
2019-01-04T01:25:46.752Z,957.52
2019-01-04T01:26:54.896Z,957.55
2019-01-04T01:28:02.921Z,957.51
2019-01-04T01:29:10.914Z,957.46
2019-01-04T01:30:18.966Z,957.47
2019-01-04T01:31:27.062Z,957.47
2019-01-04T01:32:35.087Z,957.46
2019-01-04T01:33:43.227Z,957.47
2019-01-04T01:34:51.174Z,957.41
2019-01-04T01:35:59.239Z,957.42
2019-01-04T01:37:07.297Z,957.35
2019-01-04T01:38:15.367Z,957.36
2019-01-04T01:39:23.522Z,957.39
2019-01-04T01:40:31.472Z,957.35
2019-01-04T01:41:39.518Z,957.31
2019-01-04T01:42:47.633Z,957.34
2019-01-04T01:43:55.651Z,957.28
2019-01-04T01:45:03.795Z,957.33
2019-01-04T01:46:11.735Z,957.31
2019-01-04T01:47:19.793Z,957.30
2019-01-04T01:48:27.840Z,957.29
2019-01-04T01:49:35.903Z,957.29
2019-01-04T01:50:44.054Z,957.30
2019-01-04T01:51:52.021Z,957.24
2019-01-04T01:53:00.089Z,957.20
2019-01-04T01:54:08.138Z,957.24
2019-01-04T01:55:16.203Z,957.27
2019-01-04T01:56:24.290Z,957.25
2019-01-04T01:57:32.391Z,957.26
2019-01-04T01:58:40.352Z,957.25
2019-01-04T01:59:48.405Z,957.23
2019-01-04T02:00:56.448Z,957.22
2019-01-04T02:02:04.979Z,957.25
2019-01-04T02:03:12.567Z,957.21
2019-01-04T02:04:20.619Z,957.24
2019-01-04T02:05:28.681Z,957.23
2019-01-04T02:06:36.719Z,957.22
2019-01-04T02:07:44.888Z,957.23
2019-01-04T02:08:52.847Z,957.22
2019-01-04T02:10:00.867Z,957.22
2019-01-04T02:11:08.945Z,957.20
2019-01-04T02:12:16.997Z,957.19
2019-01-04T02:13:25.172Z,957.16
2019-01-04T02:14:33.113Z,957.21
2019-01-04T02:15:41.194Z,957.22
2019-01-04T02:16:49.219Z,957.18
2019-01-04T02:17:57.372Z,957.20
2019-01-04T02:19:05.334Z,957.15
2019-01-04T02:20:13.391Z,957.20
2019-01-04T02:21:21.436Z,957.24
2019-01-04T02:22:29.488Z,957.24
2019-01-04T02:23:38.007Z,957.23
2019-01-04T02:24:45.595Z,957.24
2019-01-04T02:25:53.655Z,957.21
2019-01-04T02:27:01.725Z,957.19
2019-01-04T02:28:09.801Z,957.21
2019-01-04T02:29:17.932Z,957.20
2019-01-04T02:30:25.870Z,957.24
2019-01-04T02:31:33.925Z,957.25
2019-01-04T02:32:41.977Z,957.23
2019-01-04T02:33:50.054Z,957.20
2019-01-04T02:34:58.201Z,957.18
2019-01-04T02:36:06.143Z,957.18
2019-01-04T02:37:14.217Z,957.22
2019-01-04T02:38:22.403Z,957.22
2019-01-04T02:39:30.298Z,957.24
2019-01-04T02:40:38.450Z,957.23
2019-01-04T02:41:46.416Z,957.23
2019-01-04T02:42:54.494Z,957.22
2019-01-04T02:44:02.638Z,957.18
2019-01-04T02:45:10.588Z,957.23
2019-01-04T02:46:18.741Z,957.20
2019-01-04T02:47:26.707Z,957.24
2019-01-04T02:48:34.769Z,957.19
2019-01-04T02:49:42.813Z,957.16
2019-01-04T02:50:50.894Z,957.16
2019-01-04T02:51:59.021Z,957.15
2019-01-04T02:53:06.960Z,957.14
2019-01-04T02:54:15.022Z,957.14
2019-01-04T02:55:23.073Z,957.10
2019-01-04T02:56:31.138Z,957.13
2019-01-04T02:57:39.288Z,957.16
2019-01-04T02:58:47.240Z,957.18
2019-01-04T02:59:55.413Z,957.20
2019-01-04T03:01:03.377Z,957.19
2019-01-04T03:02:11.406Z,957.23
2019-01-04T03:03:19.605Z,957.22
2019-01-04T03:04:27.518Z,957.21
2019-01-04T03:05:35.598Z,957.22
2019-01-04T03:06:43.630Z,957.21
2019-01-04T03:07:51.765Z,957.21
2019-01-04T03:08:59.738Z,957.16
2019-01-04T03:10:07.797Z,957.17
2019-01-04T03:11:15.886Z,957.15
2019-01-04T03:12:23.898Z,957.15
2019-01-04T03:13:31.964Z,957.14
2019-01-04T03:14:40.009Z,957.12
2019-01-04T03:15:48.185Z,957.10
2019-01-04T03:16:56.123Z,957.07
2019-01-04T03:18:04.280Z,957.07
2019-01-04T03:19:12.223Z,957.05
2019-01-04T03:20:20.276Z,957.02
2019-01-04T03:21:28.345Z,957.02
2019-01-04T03:22:36.495Z,957.02
2019-01-04T03:23:44.471Z,956.99
2019-01-04T03:24:52.523Z,956.98
2019-01-04T03:26:00.561Z,957.00
2019-01-04T03:27:08.625Z,956.96
2019-01-04T03:28:16.732Z,956.95
2019-01-04T03:29:24.709Z,956.96
2019-01-04T03:30:32.764Z,956.88
2019-01-04T03:31:40.917Z,956.91
2019-01-04T03:32:48.986Z,956.89
2019-01-04T03:33:56.939Z,956.88
2019-01-04T03:35:04.998Z,956.90
2019-01-04T03:36:13.048Z,956.85
2019-01-04T03:37:21.095Z,956.89
2019-01-04T03:38:29.254Z,956.87
2019-01-04T03:39:37.259Z,956.89
2019-01-04T03:40:45.271Z,956.84
2019-01-04T03:41:53.325Z,956.84
2019-01-04T03:43:01.378Z,956.82
2019-01-04T03:44:09.546Z,956.81
2019-01-04T03:45:17.493Z,956.82
2019-01-04T03:46:25.545Z,956.80
2019-01-04T03:47:33.679Z,956.75
2019-01-04T03:48:41.650Z,956.80
2019-01-04T03:49:49.811Z,956.74
2019-01-04T03:50:57.769Z,956.74
2019-01-04T03:52:05.824Z,956.75
2019-01-04T03:53:13.859Z,956.75
2019-01-04T03:54:21.927Z,956.76
2019-01-04T03:55:30.104Z,956.71
2019-01-04T03:56:38.038Z,956.75
2019-01-04T03:57:46.094Z,956.80
2019-01-04T03:58:54.138Z,956.82
2019-01-04T04:00:02.210Z,956.85
2019-01-04T04:01:10.350Z,956.84
2019-01-04T04:02:18.320Z,956.84
2019-01-04T04:03:26.570Z,956.82
2019-01-04T04:04:34.412Z,956.86
2019-01-04T04:05:42.465Z,956.87
2019-01-04T04:06:50.610Z,956.84
2019-01-04T04:07:58.635Z,956.85
2019-01-04T04:09:06.633Z,956.86
2019-01-04T04:10:14.691Z,956.81
2019-01-04T04:11:22.740Z,956.87
2019-01-04T04:12:30.873Z,956.85
2019-01-04T04:13:38.847Z,956.82
2019-01-04T04:14:46.906Z,956.90
2019-01-04T04:15:54.981Z,956.89
2019-01-04T04:17:03.024Z,956.87
2019-01-04T04:18:11.153Z,956.89
2019-01-04T04:19:19.138Z,956.86
2019-01-04T04:20:27.172Z,956.89
2019-01-04T04:21:35.276Z,956.91
2019-01-04T04:22:43.394Z,956.84
2019-01-04T04:23:51.333Z,956.89
2019-01-04T04:24:59.399Z,956.90
2019-01-04T04:26:07.450Z,956.91
2019-01-04T04:27:15.503Z,956.93
2019-01-04T04:28:23.705Z,956.92
2019-01-04T04:29:31.617Z,956.95
2019-01-04T04:30:39.701Z,957.02
2019-01-04T04:31:47.720Z,956.98
2019-01-04T04:32:55.833Z,957.03
2019-01-04T04:34:03.921Z,957.03
2019-01-04T04:35:11.886Z,957.05
2019-01-04T04:36:19.946Z,957.08
2019-01-04T04:37:27.985Z,957.09
2019-01-04T04:38:36.046Z,957.12
2019-01-04T04:39:44.221Z,957.09
2019-01-04T04:40:52.169Z,957.11
2019-01-04T04:42:00.214Z,957.14
2019-01-04T04:43:08.277Z,957.11
2019-01-04T04:44:16.326Z,957.12
2019-01-04T04:45:24.477Z,957.12
2019-01-04T04:46:32.433Z,957.11
2019-01-04T04:47:40.564Z,957.15
2019-01-04T04:48:48.553Z,957.16
2019-01-04T04:49:56.600Z,957.14
2019-01-04T04:51:04.747Z,957.13
2019-01-04T04:52:12.714Z,957.12
2019-01-04T04:53:20.755Z,957.10
2019-01-04T04:54:28.835Z,957.13
2019-01-04T04:55:36.861Z,957.13
2019-01-04T04:56:45.010Z,957.11
2019-01-04T04:57:52.987Z,957.14
2019-01-04T04:59:01.022Z,957.10
2019-01-04T05:00:09.092Z,957.13
2019-01-04T05:01:17.149Z,957.15
2019-01-04T05:02:25.291Z,957.11
2019-01-04T05:03:33.341Z,957.12
2019-01-04T05:04:41.288Z,957.09
2019-01-04T05:05:49.369Z,957.08
2019-01-04T05:06:57.421Z,957.04
2019-01-04T05:08:05.559Z,956.98
2019-01-04T05:09:13.536Z,956.96
2019-01-04T05:10:21.590Z,956.94
2019-01-04T05:11:29.637Z,956.91
2019-01-04T05:12:37.728Z,956.89
2019-01-04T05:13:45.725Z,956.90
2019-01-04T05:14:53.802Z,956.93
2019-01-04T05:16:01.856Z,956.92
2019-01-04T05:17:09.913Z,956.92
2019-01-04T05:18:18.058Z,956.94
2019-01-04T05:19:26.457Z,956.91
2019-01-04T05:20:34.067Z,956.89
2019-01-04T05:21:42.133Z,956.86
2019-01-04T05:22:50.198Z,956.89
2019-01-04T05:23:58.327Z,956.93
2019-01-04T05:25:06.284Z,956.90
2019-01-04T05:26:14.334Z,956.95
2019-01-04T05:27:22.399Z,956.96
2019-01-04T05:28:30.452Z,956.91
2019-01-04T05:29:38.865Z,956.97
2019-01-04T05:30:46.611Z,957.00
2019-01-04T05:31:54.617Z,957.00
2019-01-04T05:33:02.662Z,957.00
2019-01-04T05:34:10.745Z,957.02
2019-01-04T05:35:18.830Z,957.06
2019-01-04T05:36:26.841Z,957.13
2019-01-04T05:37:34.892Z,957.14
2019-01-04T05:38:42.948Z,957.10
2019-01-04T05:39:50.984Z,957.09
2019-01-04T05:40:59.138Z,957.11
2019-01-04T05:42:07.213Z,957.19
2019-01-04T05:43:15.171Z,957.16
2019-01-04T05:44:23.214Z,957.21
2019-01-04T05:45:31.251Z,957.24
2019-01-04T05:46:39.414Z,957.27
2019-01-04T05:47:47.393Z,957.29
2019-01-04T05:48:55.443Z,957.25
2019-01-04T05:50:03.484Z,957.27
2019-01-04T05:51:11.637Z,957.24
2019-01-04T05:52:19.700Z,957.24
2019-01-04T05:53:27.644Z,957.24
2019-01-04T05:54:35.719Z,957.22
2019-01-04T05:55:43.747Z,957.21
2019-01-04T05:56:51.815Z,957.24
2019-01-04T05:57:59.966Z,957.26
2019-01-04T05:59:07.946Z,957.27
2019-01-04T06:00:15.958Z,957.27
2019-01-04T06:01:24.019Z,957.30
2019-01-04T06:02:32.172Z,957.31
2019-01-04T06:03:40.119Z,957.30
2019-01-04T06:04:48.176Z,957.29
2019-01-04T06:05:56.258Z,957.36
2019-01-04T06:07:04.393Z,957.41
2019-01-04T06:08:12.432Z,957.41
2019-01-04T06:09:20.385Z,957.47
2019-01-04T06:10:28.467Z,957.45
2019-01-04T06:11:36.751Z,957.42
2019-01-04T06:12:45.268Z,957.42
2019-01-04T06:13:52.612Z,957.40
2019-01-04T06:15:00.636Z,957.42
2019-01-04T06:16:08.723Z,957.42
2019-01-04T06:17:16.778Z,957.44
2019-01-04T06:18:24.921Z,957.40
2019-01-04T06:19:32.871Z,957.37
2019-01-04T06:20:40.933Z,957.32
2019-01-04T06:21:48.991Z,957.31
2019-01-04T06:22:57.076Z,957.26
2019-01-04T06:24:05.177Z,957.26
2019-01-04T06:25:13.162Z,957.31
2019-01-04T06:26:21.188Z,957.25
2019-01-04T06:27:29.241Z,957.27
2019-01-04T06:28:37.307Z,957.24
2019-01-04T06:29:45.453Z,957.24
2019-01-04T06:30:53.430Z,957.22
2019-01-04T06:32:01.454Z,957.27
2019-01-04T06:33:09.524Z,957.26
2019-01-04T06:34:17.584Z,957.23
2019-01-04T06:35:25.727Z,957.24
2019-01-04T06:36:33.678Z,957.21
2019-01-04T06:37:41.856Z,957.20
2019-01-04T06:38:49.784Z,957.25
2019-01-04T06:39:57.829Z,957.27
2019-01-04T06:41:05.999Z,957.22
2019-01-04T06:42:13.942Z,957.27
2019-01-04T06:43:22.008Z,957.27
2019-01-04T06:44:30.070Z,957.31
2019-01-04T06:45:38.113Z,957.31
2019-01-04T06:46:46.224Z,957.29
2019-01-04T06:47:54.224Z,957.30
2019-01-04T06:49:02.279Z,957.31
2019-01-04T06:50:10.334Z,957.31
2019-01-04T06:51:18.388Z,957.26
2019-01-04T06:52:26.548Z,957.30
2019-01-04T06:53:34.502Z,957.32
2019-01-04T06:54:42.545Z,957.34
2019-01-04T06:55:50.590Z,957.36
2019-01-04T06:56:58.654Z,957.38
2019-01-04T06:58:06.768Z,957.41
2019-01-04T06:59:14.765Z,957.37
2019-01-04T07:00:22.808Z,957.34
2019-01-04T07:01:30.836Z,957.31
2019-01-04T07:02:38.971Z,957.38
2019-01-04T07:03:46.973Z,957.38
2019-01-04T07:04:55.035Z,957.43
2019-01-04T07:06:03.087Z,957.45
2019-01-04T07:07:11.129Z,957.48
2019-01-04T07:08:19.284Z,957.53
2019-01-04T07:09:27.236Z,957.54
2019-01-04T07:10:35.299Z,957.50
2019-01-04T07:11:43.372Z,957.53
2019-01-04T07:12:51.498Z,957.56
2019-01-04T07:13:59.475Z,957.59
2019-01-04T07:15:07.518Z,957.59
2019-01-04T07:16:15.575Z,957.55
2019-01-04T07:17:23.633Z,957.59
2019-01-04T07:18:31.676Z,957.54
2019-01-04T07:19:39.730Z,957.50
2019-01-04T07:20:47.807Z,957.49
2019-01-04T07:21:55.840Z,957.48
2019-01-04T07:23:04.003Z,957.51
2019-01-04T07:24:11.950Z,957.53
2019-01-04T07:25:20.009Z,957.49
2019-01-04T07:26:28.091Z,957.45
2019-01-04T07:27:36.112Z,957.52
2019-01-04T07:28:44.283Z,957.53
2019-01-04T07:29:52.225Z,957.45
2019-01-04T07:31:00.270Z,957.45
2019-01-04T07:32:08.333Z,957.49
2019-01-04T07:33:16.393Z,957.51
2019-01-04T07:34:24.529Z,957.53
2019-01-04T07:35:32.496Z,957.54
2019-01-04T07:36:40.537Z,957.54
2019-01-04T07:37:48.640Z,957.55
2019-01-04T07:38:56.752Z,957.55
2019-01-04T07:40:04.817Z,957.55
2019-01-04T07:41:12.780Z,957.58
2019-01-04T07:42:20.813Z,957.62
2019-01-04T07:43:28.889Z,957.68
2019-01-04T07:44:36.940Z,957.67
2019-01-04T07:45:45.101Z,957.64
2019-01-04T07:46:53.047Z,957.70
2019-01-04T07:48:01.075Z,957.74
2019-01-04T07:49:09.204Z,957.70
2019-01-04T07:50:17.218Z,957.74
2019-01-04T07:51:25.372Z,957.70
2019-01-04T07:52:33.322Z,957.75
2019-01-04T07:53:41.380Z,957.73
2019-01-04T07:54:49.528Z,957.76
2019-01-04T07:55:57.477Z,957.77
2019-01-04T07:57:05.632Z,957.80
2019-01-04T07:58:13.585Z,957.82
2019-01-04T07:59:21.636Z,957.78
2019-01-04T08:00:29.702Z,957.81
2019-01-04T08:01:37.755Z,957.84
2019-01-04T08:02:45.848Z,957.86
2019-01-04T08:03:53.864Z,957.80
2019-01-04T08:05:01.914Z,957.81
2019-01-04T08:06:09.978Z,957.90
2019-01-04T08:07:18.052Z,957.91
2019-01-04T08:08:26.171Z,957.92
2019-01-04T08:09:34.135Z,957.87
2019-01-04T08:10:42.288Z,957.90
2019-01-04T08:11:50.247Z,957.87
2019-01-04T08:12:58.309Z,957.89
2019-01-04T08:14:06.794Z,957.91
2019-01-04T08:15:14.416Z,957.95
2019-01-04T08:16:22.494Z,957.93
2019-01-04T08:17:30.501Z,957.91
2019-01-04T08:18:38.582Z,957.91
2019-01-04T08:19:46.698Z,957.95
2019-01-04T08:20:54.688Z,957.90
2019-01-04T08:22:02.730Z,957.93
2019-01-04T08:23:10.773Z,957.94
2019-01-04T08:24:18.834Z,957.96
2019-01-04T08:25:26.994Z,957.99
2019-01-04T08:26:35.182Z,957.99
2019-01-04T08:27:43.006Z,957.98
2019-01-04T08:28:51.071Z,957.99
2019-01-04T08:29:59.112Z,958.03
2019-01-04T08:31:07.232Z,958.05
2019-01-04T08:32:15.236Z,958.05
2019-01-04T08:33:23.275Z,958.05
2019-01-04T08:34:31.328Z,958.00
2019-01-04T08:35:39.390Z,958.08
2019-01-04T08:36:47.580Z,958.03
2019-01-04T08:37:55.510Z,958.06
2019-01-04T08:39:03.561Z,958.05
2019-01-04T08:40:11.612Z,958.07
2019-01-04T08:41:19.665Z,958.07
2019-01-04T08:42:27.816Z,958.09
2019-01-04T08:43:35.768Z,958.09
2019-01-04T08:44:43.834Z,958.06
2019-01-04T08:45:51.946Z,958.06
2019-01-04T08:46:59.930Z,958.01
2019-01-04T08:48:08.108Z,958.05
2019-01-04T08:49:16.058Z,958.00
2019-01-04T08:50:24.116Z,958.04
2019-01-04T08:51:32.179Z,958.06
2019-01-04T08:52:40.272Z,958.06
2019-01-04T08:53:48.285Z,958.07
2019-01-04T08:54:56.323Z,958.08
2019-01-04T08:56:04.397Z,958.05
2019-01-04T08:57:12.486Z,958.07
2019-01-04T08:58:20.577Z,958.07
2019-01-04T08:59:28.555Z,958.08
2019-01-04T09:00:36.609Z,958.05
2019-01-04T09:01:44.665Z,958.07
2019-01-04T09:02:52.718Z,958.00
2019-01-04T09:04:00.849Z,958.05
2019-01-04T09:05:08.823Z,958.04
2019-01-04T09:06:16.881Z,958.06
2019-01-04T09:07:24.938Z,958.05
2019-01-04T09:08:33.046Z,958.03
2019-01-04T09:09:41.127Z,957.98
2019-01-04T09:10:49.107Z,958.03
2019-01-04T09:11:57.161Z,958.07
2019-01-04T09:13:05.308Z,958.07
2019-01-04T09:14:13.280Z,958.06
2019-01-04T09:15:21.416Z,958.05
2019-01-04T09:16:29.384Z,958.03
2019-01-04T09:17:37.455Z,958.03
2019-01-04T09:18:45.517Z,958.05
2019-01-04T09:19:53.593Z,958.04
2019-01-04T09:21:02.312Z,958.03
2019-01-04T09:23:21.137Z,958.06
2019-01-04T09:24:29.209Z,958.11
2019-01-04T09:25:37.252Z,958.08
2019-01-04T09:26:45.426Z,958.09
2019-01-04T09:27:53.454Z,958.06
2019-01-04T09:29:01.422Z,958.06
2019-01-04T09:30:09.479Z,958.08
2019-01-04T09:31:17.531Z,958.07
2019-01-04T09:32:25.694Z,958.12
2019-01-04T09:33:33.663Z,958.15
2019-01-04T09:34:41.693Z,958.17
2019-01-04T09:35:49.763Z,958.19
2019-01-04T09:36:57.819Z,958.18
2019-01-04T09:38:05.981Z,958.21
2019-01-04T09:39:13.937Z,958.21
2019-01-04T09:40:21.981Z,958.23
2019-01-04T09:41:30.048Z,958.24
2019-01-04T09:42:38.146Z,958.24
2019-01-04T09:43:46.247Z,958.24
2019-01-04T09:44:54.217Z,958.23
2019-01-04T09:46:02.265Z,958.23
2019-01-04T09:47:10.331Z,958.25
2019-01-04T09:48:18.434Z,958.23
2019-01-04T09:49:26.440Z,958.24
2019-01-04T09:50:34.499Z,958.26
2019-01-04T09:51:42.557Z,958.26
2019-01-04T09:52:50.659Z,958.24
2019-01-04T09:53:58.675Z,958.22
2019-01-04T09:55:06.726Z,958.18
2019-01-04T09:56:14.794Z,958.21
2019-01-04T09:57:23.521Z,958.17
2019-01-04T09:58:30.878Z,958.17
2019-01-04T09:59:39.056Z,958.17
2019-01-04T10:00:47.012Z,958.19
2019-01-04T10:01:55.077Z,958.18
2019-01-04T10:03:03.166Z,958.25
2019-01-04T10:04:11.161Z,958.22
2019-01-04T10:05:19.243Z,958.18
2019-01-04T10:06:27.344Z,958.16
2019-01-04T10:07:35.470Z,958.12
2019-01-04T10:08:44.940Z,958.14
2019-01-04T10:09:51.474Z,958.13
2019-01-04T10:10:59.548Z,958.14
2019-01-04T10:12:07.593Z,958.15
2019-01-04T10:13:15.739Z,958.14
2019-01-04T10:14:23.709Z,958.14
2019-01-04T10:15:31.862Z,958.11
2019-01-04T10:16:39.820Z,957.99
2019-01-04T10:17:47.965Z,957.93
2019-01-04T10:18:56.769Z,957.92
2019-01-04T10:20:04.010Z,957.88
2019-01-04T10:21:12.061Z,957.87
2019-01-04T10:22:20.104Z,957.81
2019-01-04T10:23:28.174Z,957.80
2019-01-04T10:24:36.322Z,957.76
2019-01-04T10:25:44.291Z,957.74
2019-01-04T10:26:52.359Z,957.72
2019-01-04T10:28:00.406Z,957.70
2019-01-04T10:29:08.464Z,957.67
2019-01-04T10:30:16.634Z,957.65
2019-01-04T10:31:24.689Z,957.59
2019-01-04T10:32:32.644Z,957.58
2019-01-04T10:33:40.679Z,957.57
2019-01-04T10:34:48.749Z,957.63
2019-01-04T10:35:56.938Z,957.61
2019-01-04T10:37:04.891Z,957.59
2019-01-04T10:38:12.939Z,957.60
2019-01-04T10:39:20.973Z,957.56
2019-01-04T10:40:29.041Z,957.51
2019-01-04T10:41:37.218Z,957.52
2019-01-04T10:42:45.169Z,957.49
2019-01-04T10:43:53.233Z,957.51
2019-01-04T10:45:01.267Z,957.54
2019-01-04T10:46:09.347Z,957.50
2019-01-04T10:47:17.499Z,957.53
2019-01-04T10:48:25.444Z,957.50
2019-01-04T10:49:33.528Z,957.51
2019-01-04T10:50:41.593Z,957.53
2019-01-04T10:51:49.634Z,957.50
2019-01-04T10:52:57.980Z,957.45
2019-01-04T10:54:05.749Z,957.43
2019-01-04T10:55:13.817Z,957.46
2019-01-04T10:56:21.869Z,957.51
2019-01-04T10:57:30.014Z,957.46
2019-01-04T10:58:38.003Z,957.49
2019-01-04T10:59:46.048Z,957.50
2019-01-04T11:00:54.113Z,957.50
2019-01-04T11:02:02.167Z,957.57
2019-01-04T11:03:10.277Z,957.58
2019-01-04T11:04:18.298Z,957.62
2019-01-04T11:05:26.343Z,957.56
2019-01-04T11:06:34.404Z,957.53
2019-01-04T11:07:42.559Z,957.47
2019-01-04T11:08:50.487Z,957.44
2019-01-04T11:09:58.572Z,957.38
2019-01-04T11:11:06.628Z,957.33
2019-01-04T11:12:15.924Z,957.27
2019-01-04T11:13:22.844Z,957.26
2019-01-04T11:14:30.775Z,957.27
2019-01-04T11:15:39.008Z,957.26
2019-01-04T11:16:46.916Z,957.27
2019-01-04T11:17:55.027Z,957.20
2019-01-04T11:19:03.127Z,957.20
2019-01-04T11:20:11.079Z,957.17
2019-01-04T11:21:19.170Z,957.20
2019-01-04T11:22:27.825Z,957.21
2019-01-04T11:23:35.272Z,957.25
2019-01-04T11:24:43.444Z,957.22
2019-01-04T11:25:51.372Z,957.22
2019-01-04T11:26:59.453Z,957.19
2019-01-04T11:28:07.509Z,957.18
2019-01-04T11:29:15.581Z,957.29
2019-01-04T11:30:23.730Z,957.34
2019-01-04T11:31:31.658Z,957.31
2019-01-04T11:32:39.830Z,957.25
2019-01-04T11:33:47.808Z,957.24
2019-01-04T11:34:55.867Z,957.19
2019-01-04T11:36:04.021Z,957.18
2019-01-04T11:37:11.980Z,957.15
2019-01-04T11:38:20.035Z,957.19
2019-01-04T11:39:28.098Z,957.18
2019-01-04T11:40:36.153Z,957.14
2019-01-04T11:41:44.311Z,957.11
2019-01-04T11:42:52.307Z,957.06
2019-01-04T11:44:00.337Z,957.04
2019-01-04T11:45:08.393Z,957.01
2019-01-04T11:46:16.442Z,957.01
2019-01-04T11:47:24.607Z,956.99
2019-01-04T11:48:32.723Z,956.97
2019-01-04T11:49:40.612Z,956.93
2019-01-04T11:50:48.687Z,956.98
2019-01-04T11:51:56.744Z,956.96
2019-01-04T11:53:04.857Z,956.98
2019-01-04T11:54:12.867Z,957.00
2019-01-04T11:55:20.917Z,957.02
2019-01-04T11:56:28.975Z,957.02
2019-01-04T11:57:37.072Z,957.02
2019-01-04T11:58:45.093Z,956.99
2019-01-04T11:59:53.159Z,956.99
2019-01-04T12:01:01.211Z,956.96
2019-01-04T12:02:09.282Z,956.94
2019-01-04T12:03:17.376Z,956.86
2019-01-04T12:04:25.504Z,956.85
2019-01-04T12:05:33.460Z,956.83
2019-01-04T12:06:41.515Z,956.87
2019-01-04T12:07:49.653Z,956.85
2019-01-04T12:08:57.648Z,956.83
2019-01-04T12:10:05.685Z,956.80
2019-01-04T12:11:13.740Z,956.80
2019-01-04T12:12:21.819Z,956.78
2019-01-04T12:13:29.990Z,956.77
2019-01-04T12:14:41.308Z,956.72
2019-01-04T12:15:45.986Z,956.66
2019-01-04T12:16:54.048Z,956.67
2019-01-04T12:18:02.111Z,956.59
2019-01-04T12:19:10.266Z,956.49
2019-01-04T12:20:18.234Z,956.51
2019-01-04T12:21:26.315Z,956.44
2019-01-04T12:22:34.346Z,956.49
2019-01-04T12:23:42.402Z,956.48
2019-01-04T12:24:50.479Z,956.47
2019-01-04T12:25:58.518Z,956.50
2019-01-04T12:27:06.587Z,956.51
2019-01-04T12:28:14.645Z,956.57
2019-01-04T12:29:22.838Z,956.53
2019-01-04T12:30:30.735Z,956.59
2019-01-04T12:31:38.806Z,956.64
2019-01-04T12:32:46.881Z,956.65
2019-01-04T12:33:54.938Z,956.66
2019-01-04T12:35:03.126Z,956.64
2019-01-04T12:36:11.035Z,956.59
2019-01-04T12:37:19.093Z,956.59
2019-01-04T12:38:27.180Z,956.64
2019-01-04T12:39:35.235Z,956.60
2019-01-04T12:40:43.381Z,956.57
2019-01-04T12:41:51.347Z,956.50
2019-01-04T12:42:59.406Z,956.51
2019-01-04T12:44:07.465Z,956.47
2019-01-04T12:45:15.522Z,956.49
2019-01-04T12:46:23.714Z,956.43
2019-01-04T12:47:31.628Z,956.46
2019-01-04T12:48:39.692Z,956.43
2019-01-04T12:49:47.863Z,956.48
2019-01-04T12:50:55.908Z,956.48
2019-01-04T12:52:03.878Z,956.49
2019-01-04T12:53:11.922Z,956.50
2019-01-04T12:54:19.975Z,956.54
2019-01-04T12:55:28.031Z,956.54
2019-01-04T12:56:36.214Z,956.54
2019-01-04T12:57:44.170Z,956.54
2019-01-04T12:58:52.219Z,956.54
2019-01-04T13:00:00.275Z,956.54
2019-01-04T13:01:08.419Z,956.50
2019-01-04T13:02:16.448Z,956.49
2019-01-04T13:03:24.453Z,956.50
2019-01-04T13:04:32.515Z,956.51
2019-01-04T13:05:40.650Z,956.57
2019-01-04T13:06:48.664Z,956.56
2019-01-04T13:07:56.708Z,956.57
2019-01-04T13:09:04.744Z,956.61
2019-01-04T13:10:12.799Z,956.57
2019-01-04T13:11:20.843Z,956.58
2019-01-04T13:12:28.916Z,956.58
2019-01-04T13:13:37.022Z,956.57
2019-01-04T13:14:45.042Z,956.58
2019-01-04T13:15:53.106Z,956.56
2019-01-04T13:17:01.195Z,956.51
2019-01-04T13:18:09.235Z,956.54
2019-01-04T13:19:17.289Z,956.52
2019-01-04T13:20:25.437Z,956.55
2019-01-04T13:21:33.493Z,956.60
2019-01-04T13:22:41.454Z,956.60
2019-01-04T13:23:49.524Z,956.56
2019-01-04T13:24:57.561Z,956.56
2019-01-04T13:26:05.622Z,956.53
2019-01-04T13:27:13.801Z,956.52
2019-01-04T13:28:21.749Z,956.49
2019-01-04T13:29:29.800Z,956.51
2019-01-04T13:30:37.861Z,956.51
2019-01-04T13:31:45.919Z,956.51
2019-01-04T13:32:54.073Z,956.55
2019-01-04T13:34:02.049Z,956.54
2019-01-04T13:35:10.094Z,956.57
2019-01-04T13:36:18.251Z,956.55
2019-01-04T13:37:26.223Z,956.53
2019-01-04T13:38:34.274Z,956.52
2019-01-04T13:39:42.336Z,956.54
2019-01-04T13:40:50.370Z,956.54
2019-01-04T13:41:58.451Z,956.55
2019-01-04T13:43:06.566Z,956.54
2019-01-04T13:44:14.555Z,956.51
2019-01-04T13:45:22.612Z,956.54
2019-01-04T13:46:30.666Z,956.51
2019-01-04T13:47:38.813Z,956.47
2019-01-04T13:48:46.782Z,956.53
2019-01-04T13:49:54.854Z,956.55
2019-01-04T13:51:02.908Z,956.60
2019-01-04T13:52:11.059Z,956.56
2019-01-04T13:53:19.076Z,956.56
2019-01-04T13:54:27.082Z,956.55
2019-01-04T13:55:35.149Z,956.56
2019-01-04T13:56:43.201Z,956.53
2019-01-04T13:57:51.260Z,956.49
2019-01-04T13:58:59.458Z,956.51
2019-01-04T14:00:07.371Z,956.50
2019-01-04T14:01:15.421Z,956.46
2019-01-04T14:02:23.495Z,956.43
2019-01-04T14:03:31.520Z,956.43
2019-01-04T14:04:39.691Z,956.43
2019-01-04T14:05:47.654Z,956.42
2019-01-04T14:06:55.721Z,956.38
2019-01-04T14:08:03.880Z,956.29
2019-01-04T14:09:11.844Z,956.23
2019-01-04T14:10:20.019Z,956.26